TFM - Tactical Decision Aid INFO Settings
 
 

ID: Runway Winds: Threshold: METAR Board: Map:

kiad - Washington-Dulles Intl

Updated at: 1151 UTC 01 Aug 2014
Latest TAF at: 1133 UTC 01 Aug 2014

TAF Board

Time1052Z01/12Z01/13Z01/14Z01/15Z01/16Z01/17Z01/18Z01/19Z01/20Z01/21Z01/22Z01/23Z02/00Z
TypeOBSPRVLPRVLPRVLPRVLPRVLPRVLPRVLPRVLPRVLPRVLPRVLPRVLPRVL
Vis10>6>6>66666666666
Cig14050505050505050505050505050
CoverOVCBKNBKNBKNOVCOVCOVCOVCOVCOVCOVCOVCOVCOVC
FltCat--VFRVFRVFRVFRVFRVFRVFRVFRVFRVFRVFRVFRVFR
Wx---------SHRA-SHRA-SHRA-SHRA-SHRA-SHRA-SHRA-SHRA-SHRA-SHRA
WDir170VRBVRBVRB180180180180180180180180180180
WSpd33335555555555
WGst----------------------------
Raw TAF
KIAD 011133Z 0112/0218 VRB03KT P6SM BKN050 BKN100
  FM011500 18005KT 6SM -SHRA BKN050 OVC100
  FM020200 VRB03KT P6SM SCT025 OVC050
  FM021200 03005KT P6SM OVC030


Raw METAR
KIAD 011052Z 17003KT 10SM BKN140 OVC200 21/18 A3016 RMK AO2 SLP210 T02110183

TAF/METAR Board Legend

Hazard VFR MVFR IFR LIFR
Visibility (sm) >5 3≤X≤5 1≤X<3 <1
Ceiling (100 ft) >30 10≤X≤30 5≤X<10 <5
Wind Speed (kt) <10 10≤X<20 20≤X<30 ≥30
Wind Gust (kt) <10 10≤X<20 20≤X<30 ≥30
Weather No Wx Reported -TS,-FZRA TS,FZRA +TS,+FZRA

Page loaded:  11:51 UTC  |   04:51 AM Pacific  |   05:51 AM Mountain  |   06:51 AM Central  |   07:51 AM Eastern

 

ADVISORIES

FORECASTS

FORECASTS

OBSERVATIONS

USER TOOLS

ABOUT US